sensor_id;sensor_type;location;lat;lon;timestamp;pressure;altitude;pressure_sealevel;temperature;humidity
20793;BME280;10556;-33.662;151.094;2024-03-08T00:03:18;100130.41;;;29.74;76.60
20793;BME280;10556;-33.662;151.094;2024-03-08T00:08:21;100134.53;;;30.42;76.37
20793;BME280;10556;-33.662;151.094;2024-03-08T00:13:25;100134.69;;;31.40;72.51
20793;BME280;10556;-33.662;151.094;2024-03-08T00:18:29;100137.09;;;30.93;67.48
20793;BME280;10556;-33.662;151.094;2024-03-08T00:23:34;100139.09;;;31.61;66.69
20793;BME280;10556;-33.662;151.094;2024-03-08T00:28:37;100126.38;;;32.66;64.93
20793;BME280;10556;-33.662;151.094;2024-03-08T00:33:43;100124.06;;;32.30;63.20
20793;BME280;10556;-33.662;151.094;2024-03-08T00:38:46;100112.69;;;31.89;62.06
20793;BME280;10556;-33.662;151.094;2024-03-08T00:43:49;100115.56;;;31.94;65.40
20793;BME280;10556;-33.662;151.094;2024-03-08T00:48:55;100103.56;;;30.80;68.11
20793;BME280;10556;-33.662;151.094;2024-03-08T00:53:58;100101.88;;;30.01;73.79
20793;BME280;10556;-33.662;151.094;2024-03-08T00:59:00;100091.69;;;30.12;76.67
20793;BME280;10556;-33.662;151.094;2024-03-08T01:04:06;100092.28;;;30.65;72.42
20793;BME280;10556;-33.662;151.094;2024-03-08T01:09:09;100086.16;;;31.28;68.80
20793;BME280;10556;-33.662;151.094;2024-03-08T01:14:14;100083.56;;;31.07;70.36
20793;BME280;10556;-33.662;151.094;2024-03-08T01:19:21;100077.44;;;32.64;66.50
20793;BME280;10556;-33.662;151.094;2024-03-08T01:24:25;100079.59;;;33.72;60.07
20793;BME280;10556;-33.662;151.094;2024-03-08T01:29:28;100072.63;;;31.38;65.21
20793;BME280;10556;-33.662;151.094;2024-03-08T01:34:36;100069.72;;;30.77;70.63
20793;BME280;10556;-33.662;151.094;2024-03-08T01:39:39;100069.31;;;29.87;77.00
20793;BME280;10556;-33.662;151.094;2024-03-08T01:44:43;100070.97;;;32.06;70.16
20793;BME280;10556;-33.662;151.094;2024-03-08T01:49:48;100063.56;;;31.12;70.45
20793;BME280;10556;-33.662;151.094;2024-03-08T01:54:51;100058.38;;;30.77;67.95
20793;BME280;10556;-33.662;151.094;2024-03-08T01:59:54;100047.44;;;31.29;66.77
20793;BME280;10556;-33.662;151.094;2024-03-08T02:05:01;100042.41;;;30.78;70.69
20793;BME280;10556;-33.662;151.094;2024-03-08T02:10:05;100044.94;;;33.16;59.35
20793;BME280;10556;-33.662;151.094;2024-03-08T02:15:10;100044.00;;;34.82;56.99
20793;BME280;10556;-33.662;151.094;2024-03-08T02:20:15;100040.09;;;35.64;51.63
20793;BME280;10556;-33.662;151.094;2024-03-08T02:25:26;100033.31;;;35.50;50.01
20793;BME280;10556;-33.662;151.094;2024-03-08T02:30:30;100029.31;;;34.54;52.06
20793;BME280;10556;-33.662;151.094;2024-03-08T02:35:32;100006.88;;;35.61;49.09
20793;BME280;10556;-33.662;151.094;2024-03-08T02:40:39;100010.50;;;35.49;51.34
20793;BME280;10556;-33.662;151.094;2024-03-08T02:45:42;100008.19;;;32.81;57.66
20793;BME280;10556;-33.662;151.094;2024-03-08T02:50:45;99995.66;;;33.99;57.28
20793;BME280;10556;-33.662;151.094;2024-03-08T02:55:50;99990.50;;;32.56;60.79
20793;BME280;10556;-33.662;151.094;2024-03-08T03:00:54;99983.88;;;31.04;63.35
20793;BME280;10556;-33.662;151.094;2024-03-08T03:05:56;99971.47;;;33.51;60.05
20793;BME280;10556;-33.662;151.094;2024-03-08T03:11:02;99979.44;;;35.85;53.10
20793;BME280;10556;-33.662;151.094;2024-03-08T03:16:06;99973.91;;;35.39;50.76
20793;BME280;10556;-33.662;151.094;2024-03-08T03:21:09;99965.28;;;35.92;50.79
20793;BME280;10556;-33.662;151.094;2024-03-08T03:26:15;99965.75;;;35.16;51.49
20793;BME280;10556;-33.662;151.094;2024-03-08T03:31:18;99961.50;;;35.51;51.31
20793;BME280;10556;-33.662;151.094;2024-03-08T03:36:21;99962.09;;;35.35;50.37
20793;BME280;10556;-33.662;151.094;2024-03-08T03:41:26;99952.16;;;34.94;49.58
20793;BME280;10556;-33.662;151.094;2024-03-08T03:46:29;99949.09;;;34.29;49.94
20793;BME280;10556;-33.662;151.094;2024-03-08T03:51:32;99950.13;;;34.22;51.62
20793;BME280;10556;-33.662;151.094;2024-03-08T03:56:37;99943.22;;;34.21;50.86
20793;BME280;10556;-33.662;151.094;2024-03-08T04:01:43;99936.56;;;33.80;51.73
20793;BME280;10556;-33.662;151.094;2024-03-08T04:06:46;99932.03;;;32.39;54.50
20793;BME280;10556;-33.662;151.094;2024-03-08T04:11:51;99936.91;;;33.52;52.97
20793;BME280;10556;-33.662;151.094;2024-03-08T04:16:57;99922.91;;;32.41;53.03
20793;BME280;10556;-33.662;151.094;2024-03-08T04:22:01;99928.28;;;33.06;51.71
20793;BME280;10556;-33.662;151.094;2024-03-08T04:27:06;99922.22;;;33.94;50.91
20793;BME280;10556;-33.662;151.094;2024-03-08T04:32:09;99918.41;;;32.49;51.14
20793;BME280;10556;-33.662;151.094;2024-03-08T04:37:12;99921.59;;;32.97;53.54
20793;BME280;10556;-33.662;151.094;2024-03-08T04:42:17;99920.75;;;33.22;52.06
20793;BME280;10556;-33.662;151.094;2024-03-08T04:47:20;99913.84;;;33.21;49.43
20793;BME280;10556;-33.662;151.094;2024-03-08T04:52:23;99911.88;;;32.91;52.03
20793;BME280;10556;-33.662;151.094;2024-03-08T04:57:29;99914.16;;;32.54;51.28
20793;BME280;10556;-33.662;151.094;2024-03-08T05:02:33;99918.16;;;32.04;53.02
20793;BME280;10556;-33.662;151.094;2024-03-08T05:07:37;99922.78;;;31.69;54.54
20793;BME280;10556;-33.662;151.094;2024-03-08T05:12:42;99915.91;;;31.21;54.74
20793;BME280;10556;-33.662;151.094;2024-03-08T05:17:46;99911.03;;;30.90;55.44
20793;BME280;10556;-33.662;151.094;2024-03-08T05:22:48;99917.22;;;31.03;54.95
20793;BME280;10556;-33.662;151.094;2024-03-08T05:27:57;99906.59;;;30.90;57.85
20793;BME280;10556;-33.662;151.094;2024-03-08T05:33:00;99912.38;;;30.72;58.13
20793;BME280;10556;-33.662;151.094;2024-03-08T05:38:07;99917.53;;;30.87;58.56
20793;BME280;10556;-33.662;151.094;2024-03-08T05:43:12;99911.72;;;30.43;58.60
20793;BME280;10556;-33.662;151.094;2024-03-08T05:48:15;99912.50;;;30.15;58.02
20793;BME280;10556;-33.662;151.094;2024-03-08T05:53:18;99905.81;;;29.92;59.12
20793;BME280;10556;-33.662;151.094;2024-03-08T05:58:23;99908.69;;;29.61;58.75
20793;BME280;10556;-33.662;151.094;2024-03-08T06:03:26;99892.75;;;29.62;58.83
20793;BME280;10556;-33.662;151.094;2024-03-08T06:08:28;99897.88;;;29.49;57.12
20793;BME280;10556;-33.662;151.094;2024-03-08T06:13:34;99896.34;;;29.11;57.68
20793;BME280;10556;-33.662;151.094;2024-03-08T06:18:38;99902.59;;;28.95;58.77
20793;BME280;10556;-33.662;151.094;2024-03-08T06:23:41;99890.19;;;28.74;59.30
20793;BME280;10556;-33.662;151.094;2024-03-08T06:28:46;99887.78;;;28.65;58.93
20793;BME280;10556;-33.662;151.094;2024-03-08T06:33:49;99891.50;;;28.18;60.61
20793;BME280;10556;-33.662;151.094;2024-03-08T06:38:52;99901.91;;;27.81;64.30
20793;BME280;10556;-33.662;151.094;2024-03-08T06:43:58;99899.59;;;27.55;64.87
20793;BME280;10556;-33.662;151.094;2024-03-08T06:49:02;99900.81;;;27.36;66.48
20793;BME280;10556;-33.662;151.094;2024-03-08T06:54:04;99915.50;;;27.06;69.90
20793;BME280;10556;-33.662;151.094;2024-03-08T06:59:09;99913.09;;;26.72;74.07
20793;BME280;10556;-33.662;151.094;2024-03-08T07:04:12;99911.31;;;26.16;80.33
20793;BME280;10556;-33.662;151.094;2024-03-08T07:09:14;99921.25;;;25.88;87.54
20793;BME280;10556;-33.662;151.094;2024-03-08T07:14:19;99917.56;;;25.57;90.02
20793;BME280;10556;-33.662;151.094;2024-03-08T07:19:22;99922.22;;;25.45;91.50
20793;BME280;10556;-33.662;151.094;2024-03-08T07:24:26;99917.63;;;25.39;94.94
20793;BME280;10556;-33.662;151.094;2024-03-08T07:29:31;99910.88;;;25.21;98.44
20793;BME280;10556;-33.662;151.094;2024-03-08T07:34:34;99921.19;;;24.96;100.00
20793;BME280;10556;-33.662;151.094;2024-03-08T07:39:37;99921.50;;;24.75;100.00
20793;BME280;10556;-33.662;151.094;2024-03-08T07:44:41;99920.09;;;24.55;100.00
20793;BME280;10556;-33.662;151.094;2024-03-08T07:49:44;99915.13;;;24.44;100.00
20793;BME280;10556;-33.662;151.094;2024-03-08T07:54:47;99914.75;;;24.39;100.00
20793;BME280;10556;-33.662;151.094;2024-03-08T07:59:54;99923.53;;;24.03;100.00
20793;BME280;10556;-33.662;151.094;2024-03-08T08:04:57;99917.03;;;23.89;100.00
20793;BME280;10556;-33.662;151.094;2024-03-08T08:10:00;99921.13;;;23.74;100.00
20793;BME280;10556;-33.662;151.094;2024-03-08T08:15:05;99924.06;;;23.61;100.00
20793;BME280;10556;-33.662;151.094;2024-03-08T08:20:08;99924.25;;;23.50;100.00
20793;BME280;10556;-33.662;151.094;2024-03-08T08:25:11;99930.56;;;23.48;100.00
20793;BME280;10556;-33.662;151.094;2024-03-08T08:30:18;99933.31;;;23.36;100.00
20793;BME280;10556;-33.662;151.094;2024-03-08T08:35:20;99934.38;;;23.16;100.00
20793;BME280;10556;-33.662;151.094;2024-03-08T08:40:23;99941.69;;;22.93;100.00
20793;BME280;10556;-33.662;151.094;2024-03-08T08:45:28;99942.84;;;22.72;100.00
20793;BME280;10556;-33.662;151.094;2024-03-08T08:50:32;99950.63;;;22.52;100.00
20793;BME280;10556;-33.662;151.094;2024-03-08T08:55:34;99947.75;;;22.46;100.00
20793;BME280;10556;-33.662;151.094;2024-03-08T09:00:42;99968.28;;;22.49;100.00
20793;BME280;10556;-33.662;151.094;2024-03-08T09:05:45;99970.47;;;22.53;100.00
20793;BME280;10556;-33.662;151.094;2024-03-08T09:10:47;99985.22;;;22.43;100.00
20793;BME280;10556;-33.662;151.094;2024-03-08T09:15:52;99994.91;;;22.41;100.00
20793;BME280;10556;-33.662;151.094;2024-03-08T09:20:55;100011.75;;;22.47;100.00
20793;BME280;10556;-33.662;151.094;2024-03-08T09:25:57;100017.34;;;22.33;100.00
20793;BME280;10556;-33.662;151.094;2024-03-08T09:31:02;100019.63;;;22.26;100.00
20793;BME280;10556;-33.662;151.094;2024-03-08T09:36:05;100034.56;;;22.24;100.00
20793;BME280;10556;-33.662;151.094;2024-03-08T09:41:08;100041.38;;;22.15;100.00
20793;BME280;10556;-33.662;151.094;2024-03-08T09:46:15;100043.53;;;22.01;100.00
20793;BME280;10556;-33.662;151.094;2024-03-08T09:51:18;100039.06;;;21.82;100.00
20793;BME280;10556;-33.662;151.094;2024-03-08T09:56:24;100048.69;;;21.70;100.00
20793;BME280;10556;-33.662;151.094;2024-03-08T10:01:29;100045.41;;;21.68;100.00
20793;BME280;10556;-33.662;151.094;2024-03-08T10:06:32;100059.19;;;21.69;100.00
20793;BME280;10556;-33.662;151.094;2024-03-08T10:11:37;100065.16;;;21.60;100.00
20793;BME280;10556;-33.662;151.094;2024-03-08T10:16:42;100072.44;;;21.66;100.00
20793;BME280;10556;-33.662;151.094;2024-03-08T10:21:54;100058.25;;;21.70;100.00
20793;BME280;10556;-33.662;151.094;2024-03-08T10:27:02;100050.06;;;21.74;100.00
20793;BME280;10556;-33.662;151.094;2024-03-08T10:32:08;100049.53;;;21.71;100.00
20793;BME280;10556;-33.662;151.094;2024-03-08T10:37:15;100052.56;;;21.76;100.00
20793;BME280;10556;-33.662;151.094;2024-03-08T10:42:20;100063.16;;;21.73;100.00
20793;BME280;10556;-33.662;151.094;2024-03-08T10:47:34;100057.94;;;21.63;100.00
20793;BME280;10556;-33.662;151.094;2024-03-08T10:52:41;100067.13;;;21.67;100.00
20793;BME280;10556;-33.662;151.094;2024-03-08T10:57:43;100070.84;;;21.74;100.00
20793;BME280;10556;-33.662;151.094;2024-03-08T11:02:48;100067.13;;;21.67;100.00
20793;BME280;10556;-33.662;151.094;2024-03-08T11:07:51;100066.03;;;21.70;100.00
20793;BME280;10556;-33.662;151.094;2024-03-08T11:12:54;100064.38;;;21.69;100.00
20793;BME280;10556;-33.662;151.094;2024-03-08T11:18:00;100057.81;;;21.65;100.00
20793;BME280;10556;-33.662;151.094;2024-03-08T11:23:04;100064.66;;;21.66;100.00
20793;BME280;10556;-33.662;151.094;2024-03-08T11:28:18;100054.28;;;21.66;100.00
20793;BME280;10556;-33.662;151.094;2024-03-08T11:33:24;100062.88;;;21.66;100.00
20793;BME280;10556;-33.662;151.094;2024-03-08T11:38:29;100066.31;;;21.67;100.00
20793;BME280;10556;-33.662;151.094;2024-03-08T11:43:32;100073.38;;;21.65;100.00
20793;BME280;10556;-33.662;151.094;2024-03-08T11:48:36;100072.28;;;21.58;100.00
20793;BME280;10556;-33.662;151.094;2024-03-08T11:53:39;100076.25;;;21.62;100.00
20793;BME280;10556;-33.662;151.094;2024-03-08T11:58:52;100066.50;;;21.54;100.00
20793;BME280;10556;-33.662;151.094;2024-03-08T12:03:57;100059.94;;;21.50;100.00
20793;BME280;10556;-33.662;151.094;2024-03-08T12:09:00;100064.06;;;21.53;100.00
20793;BME280;10556;-33.662;151.094;2024-03-08T12:14:03;100067.28;;;21.45;100.00
20793;BME280;10556;-33.662;151.094;2024-03-08T12:19:09;100075.06;;;21.45;100.00
20793;BME280;10556;-33.662;151.094;2024-03-08T12:24:13;100076.81;;;21.45;100.00
20793;BME280;10556;-33.662;151.094;2024-03-08T12:29:18;100078.84;;;21.41;100.00
20793;BME280;10556;-33.662;151.094;2024-03-08T12:34:24;100072.78;;;21.31;100.00
20793;BME280;10556;-33.662;151.094;2024-03-08T12:39:27;100069.56;;;21.18;100.00
20793;BME280;10556;-33.662;151.094;2024-03-08T12:44:30;100069.91;;;21.24;100.00
20793;BME280;10556;-33.662;151.094;2024-03-08T12:49:34;100082.94;;;21.34;100.00
20793;BME280;10556;-33.662;151.094;2024-03-08T12:54:37;100072.59;;;21.23;100.00
20793;BME280;10556;-33.662;151.094;2024-03-08T12:59:40;100065.59;;;21.14;100.00
20793;BME280;10556;-33.662;151.094;2024-03-08T13:04:44;100060.97;;;21.17;100.00
20793;BME280;10556;-33.662;151.094;2024-03-08T13:09:47;100058.22;;;21.40;100.00
20793;BME280;10556;-33.662;151.094;2024-03-08T13:14:50;100066.22;;;21.27;100.00
20793;BME280;10556;-33.662;151.094;2024-03-08T13:19:55;100070.28;;;21.09;100.00
20793;BME280;10556;-33.662;151.094;2024-03-08T13:24:58;100066.47;;;20.92;100.00
20793;BME280;10556;-33.662;151.094;2024-03-08T13:30:00;100069.00;;;20.82;100.00
20793;BME280;10556;-33.662;151.094;2024-03-08T13:35:05;100067.97;;;20.74;100.00
20793;BME280;10556;-33.662;151.094;2024-03-08T13:40:09;100067.00;;;20.86;100.00
20793;BME280;10556;-33.662;151.094;2024-03-08T13:45:12;100061.22;;;20.82;100.00
20793;BME280;10556;-33.662;151.094;2024-03-08T13:50:17;100053.19;;;20.54;100.00
20793;BME280;10556;-33.662;151.094;2024-03-08T13:55:20;100046.66;;;20.38;100.00
20793;BME280;10556;-33.662;151.094;2024-03-08T14:00:23;100056.91;;;20.18;100.00
20793;BME280;10556;-33.662;151.094;2024-03-08T14:05:27;100054.22;;;20.08;100.00
20793;BME280;10556;-33.662;151.094;2024-03-08T14:10:30;100061.19;;;19.85;100.00
20793;BME280;10556;-33.662;151.094;2024-03-08T14:15:33;100065.41;;;19.64;100.00
20793;BME280;10556;-33.662;151.094;2024-03-08T14:20:38;100067.63;;;19.57;100.00
20793;BME280;10556;-33.662;151.094;2024-03-08T14:25:41;100066.09;;;19.55;100.00
20793;BME280;10556;-33.662;151.094;2024-03-08T14:30:43;100066.44;;;19.50;100.00
20793;BME280;10556;-33.662;151.094;2024-03-08T14:35:48;100053.13;;;19.33;100.00
20793;BME280;10556;-33.662;151.094;2024-03-08T14:40:51;100053.69;;;19.25;100.00
20793;BME280;10556;-33.662;151.094;2024-03-08T14:45:56;100045.38;;;19.33;100.00
20793;BME280;10556;-33.662;151.094;2024-03-08T14:51:00;100045.13;;;19.36;100.00
20793;BME280;10556;-33.662;151.094;2024-03-08T14:56:03;100035.25;;;19.41;100.00
20793;BME280;10556;-33.662;151.094;2024-03-08T15:01:06;100039.53;;;19.53;100.00
20793;BME280;10556;-33.662;151.094;2024-03-08T15:06:10;100032.97;;;19.60;100.00
20793;BME280;10556;-33.662;151.094;2024-03-08T15:11:16;100022.75;;;19.70;100.00
20793;BME280;10556;-33.662;151.094;2024-03-08T15:16:19;100021.44;;;19.75;100.00
20793;BME280;10556;-33.662;151.094;2024-03-08T15:21:25;100016.59;;;19.82;100.00
20793;BME280;10556;-33.662;151.094;2024-03-08T15:26:28;100020.97;;;19.70;100.00
20793;BME280;10556;-33.662;151.094;2024-03-08T15:31:30;100015.91;;;19.69;100.00
20793;BME280;10556;-33.662;151.094;2024-03-08T15:36:35;100003.31;;;19.53;100.00
20793;BME280;10556;-33.662;151.094;2024-03-08T15:41:38;100014.69;;;19.39;100.00
20793;BME280;10556;-33.662;151.094;2024-03-08T15:46:40;100018.53;;;19.11;100.00
20793;BME280;10556;-33.662;151.094;2024-03-08T15:51:48;100011.22;;;18.94;100.00
20793;BME280;10556;-33.662;151.094;2024-03-08T15:56:51;100016.69;;;18.90;100.00
20793;BME280;10556;-33.662;151.094;2024-03-08T16:01:53;100017.13;;;19.07;100.00
20793;BME280;10556;-33.662;151.094;2024-03-08T16:06:58;100021.47;;;19.07;100.00
20793;BME280;10556;-33.662;151.094;2024-03-08T16:12:01;100016.41;;;19.05;100.00
20793;BME280;10556;-33.662;151.094;2024-03-08T16:17:04;100013.47;;;18.99;100.00
20793;BME280;10556;-33.662;151.094;2024-03-08T16:22:08;100013.53;;;18.86;100.00
20793;BME280;10556;-33.662;151.094;2024-03-08T16:27:11;100015.91;;;18.89;100.00
20793;BME280;10556;-33.662;151.094;2024-03-08T16:32:14;100011.91;;;18.96;100.00
20793;BME280;10556;-33.662;151.094;2024-03-08T16:37:19;100004.03;;;18.87;100.00
20793;BME280;10556;-33.662;151.094;2024-03-08T16:42:22;100005.28;;;18.70;100.00
20793;BME280;10556;-33.662;151.094;2024-03-08T16:47:25;100002.63;;;18.59;100.00
20793;BME280;10556;-33.662;151.094;2024-03-08T16:52:30;100007.22;;;18.55;100.00
20793;BME280;10556;-33.662;151.094;2024-03-08T16:57:43;100001.09;;;18.56;100.00
20793;BME280;10556;-33.662;151.094;2024-03-08T17:02:47;100001.53;;;18.50;100.00
20793;BME280;10556;-33.662;151.094;2024-03-08T17:07:51;100000.16;;;18.57;100.00
20793;BME280;10556;-33.662;151.094;2024-03-08T17:12:56;100005.00;;;18.62;100.00
20793;BME280;10556;-33.662;151.094;2024-03-08T17:17:59;100011.72;;;18.52;100.00
20793;BME280;10556;-33.662;151.094;2024-03-08T17:23:05;100014.72;;;18.58;100.00
20793;BME280;10556;-33.662;151.094;2024-03-08T17:28:08;100015.13;;;18.52;100.00
20793;BME280;10556;-33.662;151.094;2024-03-08T17:33:11;100018.38;;;18.43;100.00
20793;BME280;10556;-33.662;151.094;2024-03-08T17:38:15;100021.84;;;18.31;100.00
20793;BME280;10556;-33.662;151.094;2024-03-08T17:43:18;100020.28;;;18.28;100.00
20793;BME280;10556;-33.662;151.094;2024-03-08T17:48:21;100018.81;;;18.37;100.00
20793;BME280;10556;-33.662;151.094;2024-03-08T17:53:27;100029.09;;;18.50;100.00
20793;BME280;10556;-33.662;151.094;2024-03-08T17:58:29;100031.88;;;18.47;100.00
20793;BME280;10556;-33.662;151.094;2024-03-08T18:03:32;100031.78;;;18.48;100.00
20793;BME280;10556;-33.662;151.094;2024-03-08T18:08:37;100037.66;;;18.50;100.00
20793;BME280;10556;-33.662;151.094;2024-03-08T18:13:40;100043.44;;;18.54;100.00
20793;BME280;10556;-33.662;151.094;2024-03-08T18:18:42;100049.09;;;18.59;100.00
20793;BME280;10556;-33.662;151.094;2024-03-08T18:23:47;100051.94;;;18.67;100.00
20793;BME280;10556;-33.662;151.094;2024-03-08T18:28:50;100063.78;;;18.58;100.00
20793;BME280;10556;-33.662;151.094;2024-03-08T18:33:53;100059.47;;;18.46;100.00
20793;BME280;10556;-33.662;151.094;2024-03-08T18:38:57;100078.97;;;18.50;100.00
20793;BME280;10556;-33.662;151.094;2024-03-08T18:44:00;100082.41;;;18.75;100.00
20793;BME280;10556;-33.662;151.094;2024-03-08T18:49:03;100086.63;;;18.76;100.00
20793;BME280;10556;-33.662;151.094;2024-03-08T18:54:08;100084.69;;;18.66;100.00
20793;BME280;10556;-33.662;151.094;2024-03-08T18:59:10;100088.66;;;18.59;100.00
20793;BME280;10556;-33.662;151.094;2024-03-08T19:04:13;100082.75;;;18.21;100.00
20793;BME280;10556;-33.662;151.094;2024-03-08T19:09:19;100088.88;;;18.07;100.00
20793;BME280;10556;-33.662;151.094;2024-03-08T19:14:22;100084.03;;;18.03;100.00
20793;BME280;10556;-33.662;151.094;2024-03-08T19:19:25;100094.97;;;18.06;100.00
20793;BME280;10556;-33.662;151.094;2024-03-08T19:24:29;100092.91;;;18.11;100.00
20793;BME280;10556;-33.662;151.094;2024-03-08T19:29:32;100101.19;;;17.91;100.00
20793;BME280;10556;-33.662;151.094;2024-03-08T19:34:38;100113.06;;;17.94;100.00
20793;BME280;10556;-33.662;151.094;2024-03-08T19:39:42;100107.88;;;17.94;100.00
20793;BME280;10556;-33.662;151.094;2024-03-08T19:44:45;100102.28;;;18.12;100.00
20793;BME280;10556;-33.662;151.094;2024-03-08T19:49:48;100118.81;;;17.97;100.00
20793;BME280;10556;-33.662;151.094;2024-03-08T19:54:52;100124.81;;;17.98;100.00
20793;BME280;10556;-33.662;151.094;2024-03-08T19:59:55;100135.19;;;18.21;100.00
20793;BME280;10556;-33.662;151.094;2024-03-08T20:04:59;100135.72;;;18.26;100.00
20793;BME280;10556;-33.662;151.094;2024-03-08T20:10:04;100143.31;;;18.53;100.00
20793;BME280;10556;-33.662;151.094;2024-03-08T20:15:08;100139.56;;;18.57;100.00
20793;BME280;10556;-33.662;151.094;2024-03-08T20:20:13;100139.56;;;18.57;100.00
20793;BME280;10556;-33.662;151.094;2024-03-08T20:25:19;100152.47;;;18.57;100.00
20793;BME280;10556;-33.662;151.094;2024-03-08T20:30:22;100150.56;;;18.72;100.00
20793;BME280;10556;-33.662;151.094;2024-03-08T20:35:26;100161.41;;;18.77;100.00
20793;BME280;10556;-33.662;151.094;2024-03-08T20:40:31;100157.31;;;18.62;100.00
20793;BME280;10556;-33.662;151.094;2024-03-08T20:45:36;100163.06;;;18.78;100.00
20793;BME280;10556;-33.662;151.094;2024-03-08T20:50:39;100164.50;;;19.06;100.00
20793;BME280;10556;-33.662;151.094;2024-03-08T20:55:44;100169.72;;;19.17;100.00
20793;BME280;10556;-33.662;151.094;2024-03-08T21:00:47;100175.38;;;19.22;100.00
20793;BME280;10556;-33.662;151.094;2024-03-08T21:05:51;100185.88;;;19.32;100.00
20793;BME280;10556;-33.662;151.094;2024-03-08T21:10:56;100189.28;;;19.56;100.00
20793;BME280;10556;-33.662;151.094;2024-03-08T21:15:58;100184.13;;;19.67;100.00
20793;BME280;10556;-33.662;151.094;2024-03-08T21:21:01;100187.47;;;19.91;100.00
20793;BME280;10556;-33.662;151.094;2024-03-08T21:26:06;100199.28;;;20.18;100.00
20793;BME280;10556;-33.662;151.094;2024-03-08T21:31:09;100205.88;;;20.44;100.00
20793;BME280;10556;-33.662;151.094;2024-03-08T21:36:12;100208.47;;;20.55;100.00
20793;BME280;10556;-33.662;151.094;2024-03-08T21:41:17;100215.44;;;20.66;100.00
20793;BME280;10556;-33.662;151.094;2024-03-08T21:46:19;100227.41;;;20.78;100.00
20793;BME280;10556;-33.662;151.094;2024-03-08T21:51:22;100230.25;;;20.75;100.00
20793;BME280;10556;-33.662;151.094;2024-03-08T21:56:27;100242.59;;;20.94;100.00
20793;BME280;10556;-33.662;151.094;2024-03-08T22:01:29;100237.50;;;21.14;100.00
20793;BME280;10556;-33.662;151.094;2024-03-08T22:06:32;100241.69;;;21.38;100.00
20793;BME280;10556;-33.662;151.094;2024-03-08T22:11:38;100252.97;;;21.68;100.00
20793;BME280;10556;-33.662;151.094;2024-03-08T22:16:41;100258.34;;;22.08;100.00
20793;BME280;10556;-33.662;151.094;2024-03-08T22:21:43;100264.00;;;22.44;100.00
20793;BME280;10556;-33.662;151.094;2024-03-08T22:26:48;100266.50;;;22.85;100.00
20793;BME280;10556;-33.662;151.094;2024-03-08T22:31:51;100272.63;;;23.34;100.00
20793;BME280;10556;-33.662;151.094;2024-03-08T22:36:53;100271.44;;;23.67;100.00
20793;BME280;10556;-33.662;151.094;2024-03-08T22:41:58;100261.59;;;24.46;100.00
20793;BME280;10556;-33.662;151.094;2024-03-08T22:47:01;100280.59;;;24.93;100.00
20793;BME280;10556;-33.662;151.094;2024-03-08T22:52:04;100274.53;;;25.19;100.00
20793;BME280;10556;-33.662;151.094;2024-03-08T22:57:10;100275.47;;;25.18;100.00
20793;BME280;10556;-33.662;151.094;2024-03-08T23:02:12;100276.03;;;25.40;100.00
20793;BME280;10556;-33.662;151.094;2024-03-08T23:07:15;100282.69;;;26.39;100.00
20793;BME280;10556;-33.662;151.094;2024-03-08T23:12:20;100291.25;;;27.41;100.00
20793;BME280;10556;-33.662;151.094;2024-03-08T23:17:23;100291.16;;;27.99;100.00
20793;BME280;10556;-33.662;151.094;2024-03-08T23:22:25;100287.06;;;29.07;100.00
20793;BME280;10556;-33.662;151.094;2024-03-08T23:27:30;100283.63;;;28.59;100.00
20793;BME280;10556;-33.662;151.094;2024-03-08T23:32:33;100296.88;;;27.70;100.00
20793;BME280;10556;-33.662;151.094;2024-03-08T23:37:36;100299.31;;;28.21;100.00
20793;BME280;10556;-33.662;151.094;2024-03-08T23:42:41;100303.44;;;28.78;100.00
20793;BME280;10556;-33.662;151.094;2024-03-08T23:47:44;100305.81;;;29.58;93.93
20793;BME280;10556;-33.662;151.094;2024-03-08T23:52:47;100297.59;;;29.98;86.52
20793;BME280;10556;-33.662;151.094;2024-03-08T23:57:52;100299.28;;;32.08;77.50
